createdAt,value
2022-09-02T00:01:30.313Z,86.21
2022-09-02T00:07:06.302Z,86.84
2022-09-02T00:12:44.172Z,85.47
2022-09-02T00:15:34.323Z,84.62
2022-09-02T00:18:23.851Z,85.30
2022-09-02T00:23:52.611Z,84.96
2022-09-02T00:29:33.201Z,85.83
2022-09-02T00:35:02.947Z,86.70
2022-09-02T00:37:52.447Z,86.62
2022-09-02T00:40:44.935Z,86.74
2022-09-02T00:46:32.302Z,87.45
2022-09-02T00:49:24.528Z,87.73
2022-09-02T00:52:15.883Z,88.05
2022-09-02T00:55:09.157Z,88.77
2022-09-02T00:58:00.779Z,89.55
2022-09-02T01:00:52.457Z,89.68
2022-09-02T01:03:41.973Z,89.16
2022-09-02T01:09:14.454Z,88.83
2022-09-02T01:12:04.046Z,88.74
2022-09-02T01:17:34.629Z,89.42
2022-09-02T01:20:28.635Z,90.14
2022-09-02T01:23:18.543Z,90.88
2022-09-02T01:28:53.738Z,91.63
2022-09-02T01:34:29.179Z,93.19
2022-09-02T01:37:18.349Z,93.59
2022-09-02T01:40:10.214Z,93.49
2022-09-02T01:43:02.216Z,93.24
2022-09-02T01:45:52.125Z,92.99
2022-09-02T01:48:43.244Z,93.36
2022-09-02T01:54:17.575Z,94.91
2022-09-02T01:59:55.468Z,94.74
2022-09-02T02:05:32.839Z,94.99
2022-09-02T02:11:13.005Z,94.92
2022-09-02T02:16:58.533Z,94.86
2022-09-02T02:22:57.299Z,95.48
2022-09-02T02:28:38.829Z,96.44
2022-09-02T02:31:27.924Z,95.78
2022-09-02T02:34:18.873Z,96.36
2022-09-02T02:37:07.424Z,96.22
2022-09-02T02:42:41.492Z,96.04
2022-09-02T02:48:19.708Z,96.42
2022-09-02T02:53:58.997Z,96.30
2022-09-02T02:56:47.671Z,96.57
2022-09-02T02:59:37.332Z,96.40
2022-09-02T03:02:26.086Z,95.97
2022-09-02T03:05:15.479Z,96.67
2022-09-02T03:10:57.567Z,96.73
2022-09-02T03:16:33.757Z,97.66
2022-09-02T03:19:41.186Z,97.66
2022-09-02T03:22:32.165Z,97.13
2022-09-02T03:28:05.319Z,97.02
2022-09-02T03:33:42.182Z,97.65
2022-09-02T03:36:32.866Z,98.35
2022-09-02T03:42:05.740Z,95.64
2022-09-02T03:44:54.524Z,95.21
2022-09-02T03:50:27.488Z,96.74
2022-09-02T03:55:59.162Z,97.68
2022-09-02T03:58:49.283Z,98.17
2022-09-02T04:01:38.326Z,98.52
2022-09-02T04:04:26.859Z,98.33
2022-09-02T04:07:16.214Z,96.73
2022-09-02T04:12:52.803Z,97.72
2022-09-02T04:15:43.898Z,98.27
2022-09-02T04:24:09.960Z,97.24
2022-09-02T04:27:03.357Z,97.76
2022-09-02T04:32:31.438Z,99.56
2022-09-02T04:38:12.010Z,98.52
2022-09-02T04:41:01.215Z,98.84
2022-09-02T04:43:50.741Z,98.66
2022-09-02T04:49:32.726Z,99.93
2022-09-02T04:55:10.321Z,99.05
2022-09-02T04:57:58.775Z,98.30
2022-09-02T05:00:49.165Z,97.21
2022-09-02T05:06:21.751Z,97.74
2022-09-02T05:09:10.627Z,97.90
2022-09-02T05:12:01.987Z,97.90
2022-09-02T05:17:41.276Z,97.60
2022-09-02T05:23:18.578Z,96.36
2022-09-02T05:28:55.877Z,96.87
2022-09-02T05:37:38.595Z,94.66
2022-09-02T05:40:28.849Z,94.12
2022-09-02T05:43:18.539Z,92.88
2022-09-02T05:49:08.968Z,90.56
2022-09-02T05:51:58.700Z,90.81
2022-09-02T05:57:28.643Z,90.30
2022-09-02T06:00:18.613Z,91.53
2022-09-02T06:08:40.766Z,91.13
2022-09-02T06:11:29.386Z,90.96
2022-09-02T06:17:09.947Z,90.49
2022-09-02T06:22:45.960Z,89.09
2022-09-02T06:25:34.537Z,89.13
2022-09-02T06:28:22.932Z,88.32
2022-09-02T06:34:01.668Z,86.74
2022-09-02T06:36:52.756Z,87.21
2022-09-02T06:42:28.415Z,87.62
2022-09-02T06:45:16.944Z,87.26
2022-09-02T06:48:07.932Z,86.81
2022-09-02T06:53:42.371Z,86.56
2022-09-02T06:59:19.759Z,85.46
2022-09-02T07:05:07.853Z,80.91
2022-09-02T07:10:43.444Z,73.79
2022-09-02T07:16:27.195Z,68.47
2022-09-02T07:21:49.279Z,66.49
2022-09-02T07:24:38.676Z,66.44
2022-09-02T07:30:15.937Z,66.19
2022-09-02T07:33:05.469Z,65.99
2022-09-02T07:35:54.017Z,66.63
2022-09-02T07:41:30.948Z,64.92
2022-09-02T07:47:20.718Z,64.99
2022-09-02T07:50:20.199Z,63.56
2022-09-02T07:53:00.956Z,64.21
2022-09-02T07:58:36.934Z,62.81
2022-09-02T08:01:26.337Z,64.72
2022-09-02T08:07:04.777Z,67.59
2022-09-02T08:12:42.041Z,69.68
2022-09-02T08:15:31.175Z,68.82
2022-09-02T08:21:10.715Z,69.11
2022-09-02T08:27:00.810Z,63.54
2022-09-02T08:29:49.135Z,63.27
2022-09-02T08:32:37.989Z,63.99
2022-09-02T08:38:16.650Z,69.56
2022-09-02T08:43:52.720Z,66.66
2022-09-02T08:49:31.110Z,64.86
2022-09-02T08:55:10.003Z,68.94
2022-09-02T09:03:25.109Z,66.47
2022-09-02T09:06:15.854Z,66.90
2022-09-02T09:09:08.511Z,67.08
2022-09-02T09:14:41.725Z,70.94
2022-09-02T09:20:22.769Z,69.11
2022-09-02T09:25:54.805Z,68.11
2022-09-02T09:31:31.190Z,68.40
2022-09-02T09:37:08.025Z,66.65
2022-09-02T09:42:49.581Z,66.67
2022-09-02T09:45:37.289Z,66.76
2022-09-02T09:51:17.810Z,63.17
2022-09-02T09:54:17.293Z,62.01
2022-09-02T09:57:21.925Z,63.20
2022-09-02T10:03:03.480Z,63.06
2022-09-02T10:08:35.578Z,62.67
2022-09-02T10:14:14.077Z,63.50
2022-09-02T10:20:09.439Z,60.32
2022-09-02T10:26:02.707Z,61.83
2022-09-02T10:35:36.864Z,61.15
2022-09-02T10:44:33.730Z,57.55
2022-09-02T10:50:15.440Z,59.53
2022-09-02T10:53:16.095Z,58.08
2022-09-02T10:58:50.103Z,56.77
2022-09-02T11:04:28.085Z,57.22
2022-09-02T11:07:19.654Z,57.50
2022-09-02T11:10:10.784Z,57.52
2022-09-02T11:18:40.659Z,57.43
2022-09-02T11:24:28.061Z,56.49
2022-09-02T11:30:20.863Z,57.10
2022-09-02T11:35:57.411Z,55.40
2022-09-02T11:38:48.954Z,54.49
2022-09-02T11:45:03.177Z,54.15
2022-09-02T11:48:28.466Z,54.19
2022-09-02T11:51:40.395Z,53.91
2022-09-02T11:54:31.157Z,53.88
2022-09-02T11:57:24.924Z,53.39
2022-09-02T12:00:30.748Z,53.11
2022-09-02T12:06:24.119Z,54.16
2022-09-02T12:09:14.402Z,52.17
2022-09-02T12:15:16.819Z,50.87
2022-09-02T12:21:23.243Z,52.19
2022-09-02T12:27:26.997Z,52.01
2022-09-02T12:33:07.943Z,52.18
2022-09-02T12:35:58.522Z,52.28
2022-09-02T12:41:36.337Z,51.58
2022-09-02T12:47:10.826Z,51.49
2022-09-02T12:52:49.763Z,50.83
2022-09-02T12:58:21.595Z,50.16
2022-09-02T13:01:18.694Z,49.45
2022-09-02T13:10:51.669Z,49.58
2022-09-02T13:14:29.833Z,49.25
2022-09-02T13:20:46.495Z,47.95
2022-09-02T13:23:57.782Z,48.27
2022-09-02T13:33:03.008Z,49.57
2022-09-02T13:38:42.474Z,49.67
2022-09-02T13:44:25.370Z,49.01
2022-09-02T13:47:17.644Z,49.54
2022-09-02T13:55:44.927Z,50.05
2022-09-02T14:01:27.069Z,48.00
2022-09-02T14:04:17.298Z,48.32
2022-09-02T14:09:54.270Z,47.61
2022-09-02T14:15:35.868Z,47.18
2022-09-02T14:21:10.218Z,48.89
2022-09-02T14:23:58.335Z,45.12
2022-09-02T14:26:49.186Z,45.12
2022-09-02T14:29:39.434Z,46.76
2022-09-02T14:35:23.651Z,46.33
2022-09-02T14:38:13.329Z,47.51
2022-09-02T14:43:52.278Z,46.74
2022-09-02T14:46:45.873Z,46.62
2022-09-02T14:52:21.797Z,49.17
2022-09-02T14:58:04.314Z,50.56
2022-09-02T15:00:55.477Z,51.29
2022-09-02T15:06:26.690Z,52.20
2022-09-02T15:12:00.799Z,52.22
2022-09-02T15:14:46.850Z,50.86
2022-09-02T15:17:35.149Z,50.90
2022-09-02T15:23:11.923Z,51.69
2022-09-02T15:28:49.421Z,52.60
2022-09-02T15:31:37.726Z,54.32
2022-09-02T15:37:17.578Z,54.72
2022-09-02T15:42:49.989Z,56.06
2022-09-02T15:45:41.123Z,56.23
2022-09-02T15:48:29.528Z,56.93
2022-09-02T15:53:59.333Z,57.56
2022-09-02T15:56:48.403Z,58.43
2022-09-02T16:02:27.299Z,58.64
2022-09-02T16:08:01.925Z,58.77
2022-09-02T16:10:49.890Z,58.49
2022-09-02T16:13:39.235Z,59.14
2022-09-02T16:19:30.635Z,59.07
2022-09-02T16:25:12.580Z,59.34
2022-09-02T16:30:48.696Z,59.53
2022-09-02T16:36:24.374Z,60.48
2022-09-02T16:42:02.069Z,60.19
2022-09-02T16:47:36.871Z,61.58
2022-09-02T16:53:16.068Z,60.53
2022-09-02T16:56:04.854Z,60.15
2022-09-02T16:58:53.229Z,60.14
2022-09-02T17:04:20.576Z,60.88
2022-09-02T17:09:57.580Z,61.96
2022-09-02T17:12:45.976Z,62.70
2022-09-02T17:18:20.771Z,63.59
2022-09-02T17:21:19.749Z,64.13
2022-09-02T17:24:09.502Z,65.21
2022-09-02T17:29:49.849Z,68.30
2022-09-02T17:32:31.335Z,69.99
2022-09-02T17:37:59.250Z,71.59
2022-09-02T17:43:38.233Z,71.81
2022-09-02T17:49:17.308Z,71.13
2022-09-02T17:54:53.903Z,71.88
2022-09-02T18:00:41.343Z,70.93
2022-09-02T18:06:27.203Z,70.84
2022-09-02T18:14:56.777Z,71.01
2022-09-02T18:17:53.386Z,71.37
2022-09-02T18:20:45.648Z,71.41
2022-09-02T18:23:54.717Z,71.30
2022-09-02T18:36:17.615Z,71.96
2022-09-02T18:41:58.250Z,71.58
2022-09-02T18:47:34.890Z,70.92
2022-09-02T18:53:25.485Z,71.05
2022-09-02T19:11:42.787Z,73.61
2022-09-02T19:17:32.571Z,74.03
2022-09-02T19:20:22.747Z,73.75
2022-09-02T19:23:12.967Z,74.22
2022-09-02T19:28:48.264Z,77.18
2022-09-02T19:34:31.474Z,77.70
2022-09-02T19:37:22.718Z,77.92
2022-09-02T19:43:01.446Z,78.22
2022-09-02T19:48:53.495Z,76.63
2022-09-02T19:54:25.140Z,76.93
2022-09-02T19:57:16.658Z,76.86
2022-09-02T20:02:57.741Z,76.14
2022-09-02T20:08:35.217Z,77.63
2022-09-02T20:14:09.635Z,79.07
2022-09-02T20:19:56.536Z,80.17
2022-09-02T20:25:40.466Z,80.69
2022-09-02T20:32:08.180Z,79.64
2022-09-02T20:37:53.146Z,81.89
2022-09-02T20:40:46.708Z,82.65
2022-09-02T20:49:53.732Z,84.51
2022-09-02T20:55:53.221Z,84.04
2022-09-02T21:01:27.845Z,85.38
2022-09-02T21:07:16.967Z,87.28
2022-09-02T21:10:31.464Z,87.27
2022-09-02T21:16:04.847Z,87.09
2022-09-02T21:22:04.203Z,88.15
2022-09-02T21:27:39.519Z,87.16
2022-09-02T21:30:29.591Z,86.95
2022-09-02T21:33:19.092Z,86.76
2022-09-02T21:36:08.366Z,85.55
2022-09-02T21:41:50.643Z,84.45
2022-09-02T21:44:45.803Z,85.56
2022-09-02T21:47:36.736Z,86.03
2022-09-02T21:50:28.751Z,86.71
2022-09-02T21:53:19.895Z,86.77
2022-09-02T21:56:16.183Z,86.86
2022-09-02T22:02:14.992Z,86.45
2022-09-02T22:05:07.967Z,86.30
2022-09-02T22:10:52.019Z,87.65
2022-09-02T22:16:26.269Z,87.73
2022-09-02T22:22:08.118Z,83.97
2022-09-02T22:24:57.898Z,83.88
2022-09-02T22:30:32.096Z,83.47
2022-09-02T22:36:08.878Z,83.21
2022-09-02T22:41:56.672Z,81.20
2022-09-02T22:47:54.130Z,82.18
2022-09-02T22:53:31.047Z,83.12
2022-09-02T22:59:36.427Z,85.13
2022-09-02T23:02:28.077Z,85.72
2022-09-02T23:08:10.018Z,86.26
2022-09-02T23:11:02.716Z,87.71
2022-09-02T23:16:51.599Z,89.03
2022-09-02T23:22:37.624Z,89.78
2022-09-02T23:28:21.150Z,89.30
2022-09-02T23:34:06.416Z,89.84
2022-09-02T23:39:46.620Z,89.99
2022-09-02T23:42:35.913Z,90.29
2022-09-02T23:48:30.501Z,89.72
2022-09-02T23:54:18.349Z,90.55
2022-09-02T23:57:15.452Z,90.91
